Time;durP1;ratioP1;P1;durP2;ratioP2;P2;SDS_P1;SDS_P2;PMS_P1;PMS_P2;Temp;Humidity;BMP_temperature;BMP_pressure;BME280_temperature;BME280_humidity;BME280_pressure;Samples;Min_cycle;Max_cycle;Signal;HPM_P1;HPM_P2
2023/09/07 00:00:47;;;;;;;5.57;4.57;;;17.50;99.90;;;;;;5033715;28;20410;-72
2023/09/07 00:03:14;;;;;;;5.30;4.37;;;17.50;99.90;;;;;;5033201;28;20214;-71
2023/09/07 00:05:39;;;;;;;4.70;4.30;;;17.50;99.90;;;;;;5033086;28;20174;-72
2023/09/07 00:08:05;;;;;;;5.30;4.30;;;17.50;99.90;;;;;;5033337;28;20422;-72
2023/09/07 00:10:35;;;;;;;5.43;4.23;;;17.50;99.90;;;;;;5033325;28;20237;-71
2023/09/07 00:13:02;;;;;;;5.97;4.73;;;17.40;99.90;;;;;;5033130;28;20283;-70
2023/09/07 00:15:28;;;;;;;5.93;5.00;;;17.40;99.90;;;;;;5033507;28;20935;-71
2023/09/07 00:17:53;;;;;;;4.50;4.10;;;17.40;99.90;;;;;;5033484;28;20405;-70
2023/09/07 00:20:21;;;;;;;5.40;4.60;;;17.30;99.90;;;;;;5033405;28;20546;-71
2023/09/07 00:22:46;;;;;;;7.00;4.63;;;17.30;99.90;;;;;;5033028;28;20329;-72
2023/09/07 00:25:13;;;;;;;4.63;4.20;;;17.30;99.90;;;;;;5033273;28;20509;-72
2023/09/07 00:27:39;;;;;;;5.20;4.33;;;17.30;99.90;;;;;;5033250;28;20175;-71
2023/09/07 00:30:06;;;;;;;4.60;3.97;;;17.20;99.90;;;;;;5033117;28;20778;-72
2023/09/07 00:32:39;;;;;;;4.77;4.37;;;17.20;99.90;;;;;;5032849;28;20425;-71
2023/09/07 00:35:05;;;;;;;4.63;4.13;;;17.20;99.90;;;;;;5033070;28;20442;-72
2023/09/07 00:37:31;;;;;;;4.80;4.40;;;17.20;99.90;;;;;;5033066;28;20402;-72
2023/09/07 00:39:57;;;;;;;5.50;4.20;;;17.10;99.90;;;;;;5032969;28;20404;-72
2023/09/07 00:42:22;;;;;;;5.83;4.80;;;17.10;99.90;;;;;;5031673;28;20785;-71
2023/09/07 00:44:48;;;;;;;4.93;4.43;;;17.10;99.90;;;;;;5032867;28;20215;-72
2023/09/07 00:47:14;;;;;;;6.33;3.90;;;17.10;99.90;;;;;;5032849;28;20175;-72
2023/09/07 00:49:40;;;;;;;4.90;4.00;;;17.00;99.90;;;;;;5032857;28;20198;-72
2023/09/07 00:52:08;;;;;;;6.60;4.93;;;17.00;99.90;;;;;;5033691;28;20916;-72
2023/09/07 00:54:35;;;;;;;4.53;4.13;;;17.00;99.90;;;;;;5039831;28;20261;-72
2023/09/07 00:57:02;;;;;;;5.90;4.73;;;17.00;99.90;;;;;;5032504;28;20416;-71
2023/09/07 00:59:27;;;;;;;4.90;4.40;;;16.90;99.90;;;;;;5032487;28;20406;-71
2023/09/07 01:01:53;;;;;;;5.20;4.60;;;16.90;99.90;;;;;;5032563;28;20449;-71
2023/09/07 01:04:18;;;;;;;4.77;4.33;;;16.80;99.90;;;;;;5031727;28;20183;-72
2023/09/07 01:06:50;;;;;;;6.37;4.47;;;16.80;99.90;;;;;;5031231;28;20241;-72
2023/09/07 01:09:22;;;;;;;6.17;5.50;;;16.70;99.90;;;;;;5025782;28;20615;-71
2023/09/07 01:11:47;;;;;;;10.70;5.63;;;16.70;99.90;;;;;;5011653;28;20411;-72
2023/09/07 01:14:13;;;;;;;5.97;5.30;;;16.70;99.90;;;;;;5012288;28;20423;-72
2023/09/07 01:16:39;;;;;;;4.80;3.90;;;16.70;99.90;;;;;;5012625;28;20168;-72
2023/09/07 01:19:09;;;;;;;6.90;5.70;;;16.70;99.90;;;;;;5012553;28;20173;-71
2023/09/07 01:21:36;;;;;;;9.23;5.70;;;16.70;99.90;;;;;;5012457;28;20406;-71
2023/09/07 01:24:05;;;;;;;5.50;4.53;;;16.70;99.90;;;;;;5012205;28;20507;-71
2023/09/07 01:26:31;;;;;;;8.60;5.90;;;16.70;99.90;;;;;;5012486;28;20917;-73
2023/09/07 01:28:57;;;;;;;6.70;6.00;;;16.70;99.90;;;;;;5012397;28;20408;-71
2023/09/07 01:31:22;;;;;;;7.70;6.13;;;16.70;99.90;;;;;;5012422;28;20168;-71
2023/09/07 01:33:48;;;;;;;7.80;5.37;;;16.70;99.90;;;;;;5011951;28;20223;-71
2023/09/07 01:36:13;;;;;;;6.57;5.70;;;16.70;99.90;;;;;;5012276;28;20253;-72
2023/09/07 01:38:39;;;;;;;11.20;4.30;;;16.80;99.90;;;;;;5012342;28;20638;-72
2023/09/07 01:41:04;;;;;;;7.87;4.90;;;16.70;99.90;;;;;;5012315;28;20175;-71
2023/09/07 01:43:30;;;;;;;6.40;5.80;;;16.80;99.90;;;;;;5011927;28;20275;-72
2023/09/07 01:45:55;;;;;;;10.70;8.57;;;16.80;99.90;;;;;;5019969;28;20549;-72
2023/09/07 01:48:21;;;;;;;11.17;10.00;;;16.70;99.90;;;;;;5030581;28;20178;-72
2023/09/07 01:50:46;;;;;;;13.50;10.10;;;16.80;99.90;;;;;;5031956;28;20232;-72
2023/09/07 01:53:12;;;;;;;10.13;7.93;;;16.80;99.90;;;;;;5046674;28;20206;-72
2023/09/07 01:55:37;;;;;;;9.37;7.20;;;16.70;99.90;;;;;;5032832;28;20207;-72
2023/09/07 01:58:03;;;;;;;6.43;5.70;;;16.70;99.90;;;;;;5031554;28;20168;-72
2023/09/07 02:00:29;;;;;;;8.57;5.20;;;16.70;99.90;;;;;;5031672;28;20221;-71
2023/09/07 02:02:55;;;;;;;7.43;5.03;;;16.70;99.90;;;;;;5031257;28;20183;-72
2023/09/07 02:05:21;;;;;;;5.93;5.30;;;16.70;99.90;;;;;;5031629;28;20697;-72
2023/09/07 02:07:49;;;;;;;7.73;5.80;;;16.60;99.90;;;;;;5031533;28;20164;-71
2023/09/07 02:10:15;;;;;;;7.23;5.50;;;16.60;99.90;;;;;;5031354;28;20430;-71
2023/09/07 02:12:40;;;;;;;9.90;7.20;;;16.60;99.90;;;;;;5031255;28;20520;-72
2023/09/07 02:15:06;;;;;;;6.33;4.33;;;16.60;99.90;;;;;;5031402;28;20230;-73
2023/09/07 02:17:32;;;;;;;5.13;4.27;;;16.60;99.90;;;;;;5034737;28;20167;-71
2023/09/07 02:19:58;;;;;;;6.87;4.93;;;16.60;99.90;;;;;;5035667;28;20804;-71
2023/09/07 02:22:23;;;;;;;5.93;4.40;;;16.50;99.90;;;;;;5035435;28;20534;-71
2023/09/07 02:24:49;;;;;;;8.03;5.63;;;16.50;99.90;;;;;;5035513;28;20241;-71
2023/09/07 02:27:14;;;;;;;5.20;4.57;;;16.40;99.90;;;;;;5035620;28;20238;-73
2023/09/07 02:29:40;;;;;;;7.20;6.00;;;16.40;99.90;;;;;;5035431;28;20618;-71
2023/09/07 02:32:06;;;;;;;7.23;5.50;;;16.40;99.90;;;;;;5035284;28;20239;-72
2023/09/07 02:34:36;;;;;;;6.00;5.40;;;16.40;99.90;;;;;;5035132;28;20253;-71
2023/09/07 02:37:02;;;;;;;5.53;4.93;;;16.40;99.90;;;;;;5035327;28;20402;-71
2023/09/07 02:39:28;;;;;;;5.90;5.10;;;16.30;99.90;;;;;;5034032;28;20497;-72
2023/09/07 02:41:53;;;;;;;9.77;7.10;;;16.30;99.90;;;;;;5035186;28;20545;-72
2023/09/07 02:44:19;;;;;;;11.60;7.90;;;16.20;99.90;;;;;;5034965;28;20187;-72
2023/09/07 02:46:44;;;;;;;7.07;5.87;;;16.20;99.90;;;;;;5035063;28;20178;-73
2023/09/07 02:49:10;;;;;;;10.00;5.53;;;16.10;99.90;;;;;;5035174;28;20535;-72
2023/09/07 02:51:36;;;;;;;5.60;5.10;;;16.10;99.90;;;;;;5036451;28;20183;-72
2023/09/07 02:54:03;;;;;;;9.03;5.70;;;16.10;99.90;;;;;;5034541;28;20210;-72
2023/09/07 02:56:28;;;;;;;8.77;6.07;;;16.10;99.90;;;;;;5034548;28;20194;-71
2023/09/07 02:58:54;;;;;;;9.63;7.73;;;16.10;99.90;;;;;;5027267;28;20406;-72
2023/09/07 03:01:20;;;;;;;10.73;7.33;;;16.10;99.90;;;;;;5035110;28;20635;-72
2023/09/07 03:03:46;;;;;;;7.97;6.70;;;16.10;99.90;;;;;;5034418;28;20241;-72
2023/09/07 03:06:13;;;;;;;6.40;5.20;;;16.10;99.90;;;;;;5034710;28;20422;-72
2023/09/07 03:08:42;;;;;;;6.20;4.83;;;16.10;99.90;;;;;;5034233;28;20437;-72
2023/09/07 03:11:08;;;;;;;6.17;5.57;;;16.10;99.90;;;;;;5028757;28;20840;-71
2023/09/07 03:13:34;;;;;;;6.47;5.00;;;16.10;99.90;;;;;;5034291;28;20462;-72
2023/09/07 03:16:00;;;;;;;6.40;5.07;;;16.10;99.90;;;;;;5034288;28;20442;-72
2023/09/07 03:18:26;;;;;;;6.27;4.90;;;16.10;99.90;;;;;;5034531;28;20199;-72
2023/09/07 03:20:54;;;;;;;5.63;4.20;;;16.10;99.90;;;;;;5034572;28;20413;-72
2023/09/07 03:23:19;;;;;;;5.27;4.80;;;16.00;99.90;;;;;;5034022;28;20620;-72
2023/09/07 03:25:45;;;;;;;5.57;4.43;;;16.00;99.90;;;;;;5034485;28;20410;-71
2023/09/07 03:28:10;;;;;;;6.23;4.90;;;16.00;99.90;;;;;;5034035;28;20167;-72
2023/09/07 03:30:36;;;;;;;7.80;4.60;;;16.00;99.90;;;;;;5034321;28;20167;-72
2023/09/07 03:33:03;;;;;;;5.43;4.67;;;15.90;99.90;;;;;;5033766;28;20184;-72
2023/09/07 03:35:28;;;;;;;5.80;4.10;;;15.90;99.90;;;;;;5033155;28;20196;-71
2023/09/07 03:37:54;;;;;;;9.20;4.60;;;15.90;99.90;;;;;;5032899;28;20471;-72
2023/09/07 03:40:20;;;;;;;6.87;4.80;;;15.90;99.90;;;;;;5034148;28;20191;-71
2023/09/07 03:42:46;;;;;;;5.17;4.43;;;15.90;99.90;;;;;;5033626;28;20438;-73
2023/09/07 03:45:12;;;;;;;7.10;5.20;;;15.90;99.90;;;;;;5033882;28;20184;-73
2023/09/07 03:47:38;;;;;;;6.80;4.63;;;15.90;99.90;;;;;;5034071;28;20522;-71
2023/09/07 03:50:04;;;;;;;6.73;5.40;;;15.80;99.90;;;;;;5033976;28;20258;-73
2023/09/07 03:52:30;;;;;;;6.00;4.30;;;15.80;99.90;;;;;;5042612;28;20425;-72
2023/09/07 03:54:56;;;;;;;4.67;4.20;;;15.80;99.90;;;;;;5032935;28;20472;-71
2023/09/07 03:57:22;;;;;;;7.07;4.67;;;15.80;99.90;;;;;;5033682;28;20871;-71
2023/09/07 03:59:48;;;;;;;4.97;4.50;;;15.80;99.90;;;;;;5033271;28;20415;-72
2023/09/07 04:02:14;;;;;;;7.33;4.30;;;15.80;99.90;;;;;;5032042;28;20207;-72
2023/09/07 04:04:40;;;;;;;5.87;5.27;;;15.80;99.90;;;;;;5033370;28;20500;-71
2023/09/07 04:07:06;;;;;;;6.20;4.60;;;15.80;99.90;;;;;;5033433;28;20182;-72
2023/09/07 04:09:32;;;;;;;7.43;5.30;;;15.80;99.90;;;;;;5031980;28;20414;-72
2023/09/07 04:11:57;;;;;;;6.10;5.50;;;15.80;99.90;;;;;;5033296;28;20180;-71
2023/09/07 04:14:23;;;;;;;6.20;5.20;;;15.80;99.90;;;;;;5033019;28;20195;-71
2023/09/07 04:16:48;;;;;;;5.60;4.67;;;15.80;99.90;;;;;;5033480;28;20176;-71
2023/09/07 04:19:14;;;;;;;12.67;8.83;;;15.80;99.90;;;;;;5033027;28;20191;-72
2023/09/07 04:21:39;;;;;;;8.70;7.17;;;15.70;99.90;;;;;;5035200;28;20195;-71
2023/09/07 04:24:05;;;;;;;8.60;6.07;;;15.70;99.90;;;;;;5030605;28;20202;-71
2023/09/07 04:26:31;;;;;;;10.33;5.97;;;15.60;99.90;;;;;;5032823;28;20252;-72
2023/09/07 04:28:56;;;;;;;6.17;5.23;;;15.60;99.90;;;;;;5032983;28;20546;-73
2023/09/07 04:31:24;;;;;;;11.47;5.13;;;15.60;99.90;;;;;;5033167;28;20657;-71
2023/09/07 04:33:49;;;;;;;6.20;5.57;;;15.60;99.90;;;;;;5032734;28;20226;-72
2023/09/07 04:36:15;;;;;;;6.37;5.77;;;15.60;99.90;;;;;;5033043;28;20489;-72
2023/09/07 04:38:41;;;;;;;8.60;5.87;;;15.60;99.90;;;;;;5032458;28;20194;-72
2023/09/07 04:41:11;;;;;;;6.60;5.23;;;15.70;99.90;;;;;;5038958;28;20789;-71
2023/09/07 04:43:40;;;;;;;6.57;5.87;;;15.70;99.90;;;;;;5035512;28;20461;-72
2023/09/07 04:46:06;;;;;;;6.27;5.40;;;15.70;99.90;;;;;;5039466;28;20799;-72
2023/09/07 04:48:34;;;;;;;6.13;5.40;;;15.70;99.90;;;;;;5041004;28;20426;-72
2023/09/07 04:51:04;;;;;;;11.33;6.40;;;15.80;99.90;;;;;;5034389;28;20791;-72
2023/09/07 04:53:31;;;;;;;7.30;5.70;;;15.70;99.90;;;;;;5032338;28;20793;-72
2023/09/07 04:55:57;;;;;;;6.73;5.63;;;15.70;99.90;;;;;;5024481;28;20553;-73
2023/09/07 04:58:23;;;;;;;6.37;5.53;;;15.70;99.90;;;;;;5032489;28;20418;-73
2023/09/07 05:00:49;;;;;;;8.43;6.10;;;15.70;99.90;;;;;;5032539;28;20418;-71
2023/09/07 05:03:14;;;;;;;6.80;6.10;;;15.80;99.90;;;;;;5024027;28;20666;-72
2023/09/07 05:05:41;;;;;;;7.57;6.33;;;15.80;99.90;;;;;;5032480;28;20618;-72
2023/09/07 05:08:07;;;;;;;6.90;5.10;;;15.80;99.90;;;;;;5032439;28;20190;-73
2023/09/07 05:10:36;;;;;;;6.87;5.40;;;15.90;99.90;;;;;;5032275;28;20422;-72
2023/09/07 05:13:02;;;;;;;5.73;5.10;;;15.90;99.90;;;;;;5031997;28;20206;-72
2023/09/07 05:15:27;;;;;;;9.03;5.37;;;15.90;99.90;;;;;;5027282;28;20819;-72
2023/09/07 05:17:54;;;;;;;5.53;5.03;;;15.90;99.90;;;;;;5032469;28;20407;-74
2023/09/07 05:20:19;;;;;;;8.20;5.77;;;16.00;99.90;;;;;;5032015;28;20551;-73
2023/09/07 05:22:45;;;;;;;6.50;5.47;;;16.00;99.90;;;;;;5033451;28;20418;-72
2023/09/07 05:25:11;;;;;;;7.63;6.00;;;16.00;99.90;;;;;;5032046;28;20199;-72
2023/09/07 05:27:37;;;;;;;7.23;6.50;;;16.00;99.90;;;;;;5032013;28;20546;-71
2023/09/07 05:30:04;;;;;;;7.70;6.87;;;16.10;99.90;;;;;;5031894;28;20421;-71
2023/09/07 05:32:29;;;;;;;6.00;5.40;;;16.10;99.90;;;;;;5031470;28;20468;-73
2023/09/07 05:34:55;;;;;;;9.07;7.63;;;16.20;99.90;;;;;;5032038;28;20461;-71
2023/09/07 05:37:21;;;;;;;8.60;6.17;;;16.20;99.90;;;;;;5031659;28;20167;-72
2023/09/07 05:39:46;;;;;;;6.20;5.60;;;16.30;99.90;;;;;;5031674;28;20172;-72
2023/09/07 05:42:12;;;;;;;7.73;6.00;;;16.50;99.90;;;;;;5031741;28;20658;-72
2023/09/07 05:44:38;;;;;;;6.80;5.90;;;16.60;99.90;;;;;;5032020;28;20199;-72
2023/09/07 05:47:04;;;;;;;7.53;5.87;;;16.70;99.90;;;;;;5032089;28;20172;-73
2023/09/07 05:49:30;;;;;;;7.00;6.30;;;16.80;99.90;;;;;;5030577;28;20456;-73
2023/09/07 05:51:55;;;;;;;10.30;6.60;;;16.90;99.90;;;;;;5034675;28;20466;-72
2023/09/07 05:54:21;;;;;;;14.07;5.60;;;17.00;99.90;;;;;;5033429;28;20290;-73
2023/09/07 05:56:47;;;;;;;10.03;6.73;;;17.10;99.90;;;;;;5039862;28;20174;-71
2023/09/07 05:59:12;;;;;;;8.03;5.87;;;17.20;99.90;;;;;;5031698;28;20187;-72
2023/09/07 06:01:39;;;;;;;8.20;6.87;;;17.30;99.90;;;;;;5031651;28;20638;-72
2023/09/07 06:04:06;;;;;;;6.93;5.70;;;17.50;99.90;;;;;;5031437;28;20191;-72
2023/09/07 06:06:31;;;;;;;8.03;5.33;;;18.00;99.90;;;;;;5031613;28;20444;-72
2023/09/07 06:08:58;;;;;;;6.50;5.70;;;18.60;99.90;;;;;;5031573;28;20422;-71
2023/09/07 06:11:24;;;;;;;9.90;5.50;;;19.40;99.90;;;;;;5030355;28;20182;-69
2023/09/07 06:13:50;;;;;;;5.33;4.63;;;20.30;99.90;;;;;;5023161;28;20446;-72
2023/09/07 06:16:15;;;;;;;5.97;5.10;;;21.00;99.90;;;;;;5039012;28;20539;-72
2023/09/07 06:18:41;;;;;;;5.60;4.97;;;21.80;99.90;;;;;;5031597;28;20167;-72
2023/09/07 06:21:07;;;;;;;5.87;4.50;;;22.40;99.90;;;;;;5031527;28;20251;-70
2023/09/07 06:23:32;;;;;;;5.30;4.63;;;23.20;99.90;;;;;;5031170;28;20188;-70
2023/09/07 06:25:58;;;;;;;11.63;4.30;;;24.20;99.90;;;;;;5034475;28;20240;-71
2023/09/07 06:28:23;;;;;;;5.03;4.60;;;24.50;99.90;;;;;;5043296;28;20190;-70
2023/09/07 06:30:49;;;;;;;9.40;4.40;;;25.10;99.90;;;;;;5032855;28;20185;-71
2023/09/07 06:33:14;;;;;;;4.47;4.07;;;25.80;99.90;;;;;;5031079;28;20195;-71
2023/09/07 06:35:40;;;;;;;4.50;4.10;;;26.60;99.90;;;;;;5031287;28;20789;-71
2023/09/07 06:38:05;;;;;;;4.70;4.30;;;27.30;99.90;;;;;;5031047;28;20254;-71
2023/09/07 06:40:31;;;;;;;5.03;4.13;;;27.00;98.20;;;;;;5030972;28;20237;-71
2023/09/07 06:42:57;;;;;;;6.37;3.70;;;26.40;98.40;;;;;;5024166;28;20195;-71
2023/09/07 06:45:23;;;;;;;4.20;3.80;;;26.40;99.90;;;;;;5030179;28;20237;-72
2023/09/07 06:47:50;;;;;;;5.07;4.60;;;26.10;99.90;;;;;;5029366;28;20630;-71
2023/09/07 06:50:16;;;;;;;5.10;3.77;;;25.70;99.90;;;;;;5031226;28;20410;-71
2023/09/07 06:52:41;;;;;;;4.40;4.00;;;25.00;99.90;;;;;;5032905;28;20916;-71
2023/09/07 06:55:07;;;;;;;6.33;4.43;;;24.70;99.90;;;;;;5029994;28;20207;-70
2023/09/07 06:57:33;;;;;;;5.00;3.70;;;24.10;99.90;;;;;;5027777;28;20180;-70
2023/09/07 06:59:59;;;;;;;7.53;3.83;;;23.70;99.90;;;;;;5030247;28;20183;-69
2023/09/07 07:02:25;;;;;;;5.30;4.53;;;23.40;99.90;;;;;;5038019;28;20432;-70
2023/09/07 07:04:50;;;;;;;4.47;4.07;;;23.20;99.90;;;;;;5038650;28;20272;-70
2023/09/07 07:07:17;;;;;;;4.13;3.73;;;23.00;99.90;;;;;;5035397;28;20642;-70
2023/09/07 07:09:42;;;;;;;5.87;4.03;;;22.80;99.90;;;;;;5034541;28;20177;-70
2023/09/07 07:12:08;;;;;;;4.80;4.30;;;22.50;99.90;;;;;;5034440;28;20421;-69
2023/09/07 07:14:33;;;;;;;5.10;3.90;;;22.40;99.90;;;;;;5034331;28;20210;-69
2023/09/07 07:17:01;;;;;;;4.77;4.37;;;23.10;99.90;;;;;;5034394;28;20179;-70
2023/09/07 07:19:27;;;;;;;5.37;4.00;;;24.00;99.90;;;;;;5019436;28;20227;-70
2023/09/07 07:21:52;;;;;;;4.03;3.43;;;25.40;99.90;;;;;;5031054;28;20912;-71
2023/09/07 07:24:18;;;;;;;4.57;3.40;;;26.90;99.90;;;;;;5027920;28;20250;-70
2023/09/07 07:26:44;;;;;;;6.60;4.50;;;28.00;99.90;;;;;;5034348;28;20168;-70
2023/09/07 07:29:09;;;;;;;7.43;4.00;;;28.80;95.30;;;;;;5034486;28;20442;-73
2023/09/07 07:31:36;;;;;;;4.83;3.93;;;29.60;83.10;;;;;;5034255;28;20241;-72
2023/09/07 07:34:01;;;;;;;4.10;3.80;;;30.90;70.80;;;;;;5033863;28;20720;-72
2023/09/07 07:36:27;;;;;;;4.10;3.50;;;32.20;64.90;;;;;;5034093;28;20604;-72
2023/09/07 07:38:52;;;;;;;7.70;3.97;;;31.90;57.10;;;;;;5034057;28;20167;-71
2023/09/07 07:41:18;;;;;;;5.80;4.20;;;31.00;55.10;;;;;;5032776;28;20645;-72
2023/09/07 07:43:43;;;;;;;4.60;4.20;;;30.00;57.30;;;;;;5033703;28;20261;-72
2023/09/07 07:46:09;;;;;;;4.60;4.13;;;29.20;59.50;;;;;;5041209;28;20277;-72
2023/09/07 07:48:35;;;;;;;4.03;3.63;;;28.70;61.20;;;;;;5037821;28;20310;-72
2023/09/07 07:51:04;;;;;;;5.33;3.60;;;28.50;66.70;;;;;;5040989;28;20546;-72
2023/09/07 07:53:30;;;;;;;6.80;3.70;;;28.30;66.30;;;;;;5038037;28;20521;-72
2023/09/07 07:55:56;;;;;;;5.03;4.23;;;27.80;68.70;;;;;;5033057;28;20472;-72
2023/09/07 07:58:22;;;;;;;4.60;4.20;;;27.10;71.10;;;;;;5034366;28;20418;-72
2023/09/07 08:00:48;;;;;;;4.40;3.50;;;26.60;78.10;;;;;;5037093;28;20421;-72
2023/09/07 08:03:14;;;;;;;5.40;3.93;;;26.10;86.00;;;;;;5045050;28;20564;-72
2023/09/07 08:05:40;;;;;;;3.80;3.50;;;26.20;95.10;;;;;;5035447;28;20454;-72
2023/09/07 08:08:06;;;;;;;3.37;3.07;;;26.90;97.40;;;;;;5033627;28;20871;-69
2023/09/07 08:10:37;;;;;;;4.27;3.63;;;28.00;88.00;;;;;;5032247;28;20446;-71
2023/09/07 08:13:03;;;;;;;4.03;3.63;;;28.80;73.90;;;;;;5033077;28;20215;-74
2023/09/07 08:15:29;;;;;;;5.30;3.93;;;29.10;68.70;;;;;;5033432;28;20446;-74
2023/09/07 08:17:56;;;;;;;3.90;3.50;;;29.20;63.70;;;;;;5033333;28;20410;-71
2023/09/07 08:20:21;;;;;;;3.93;3.53;;;29.30;62.20;;;;;;5033268;28;20425;-71
2023/09/07 08:22:47;;;;;;;3.83;3.53;;;29.90;60.90;;;;;;5032983;28;20406;-72
2023/09/07 08:25:14;;;;;;;3.43;3.13;;;31.00;58.90;;;;;;5033374;28;20176;-73
2023/09/07 08:27:44;;;;;;;5.40;3.50;;;32.70;56.60;;;;;;5033393;28;20703;-72
2023/09/07 08:30:12;;;;;;;3.83;3.53;;;34.50;51.70;;;;;;5033385;28;20419;-73
2023/09/07 08:32:38;;;;;;;5.17;3.30;;;35.30;49.30;;;;;;5032883;28;20406;-73
2023/09/07 08:35:07;;;;;;;4.67;3.70;;;36.70;47.60;;;;;;5033087;28;20536;-74
2023/09/07 08:37:33;;;;;;;3.43;3.13;;;37.10;41.90;;;;;;5033045;28;20218;-73
2023/09/07 08:39:59;;;;;;;4.63;4.23;;;37.50;40.70;;;;;;5032768;28;20411;-74
2023/09/07 08:42:25;;;;;;;3.90;3.60;;;38.50;40.40;;;;;;5028180;28;20658;-74
2023/09/07 08:44:52;;;;;;;4.70;4.10;;;38.90;37.60;;;;;;5032374;28;20438;-74
2023/09/07 08:47:18;;;;;;;3.90;3.60;;;40.60;38.20;;;;;;5031533;28;20187;-74
2023/09/07 08:49:45;;;;;;;8.20;4.00;;;42.20;35.00;;;;;;5032555;28;20442;-74
2023/09/07 08:52:12;;;;;;;4.30;3.90;;;43.80;32.10;;;;;;5032616;28;20779;-75
2023/09/07 08:54:38;;;;;;;4.77;4.20;;;44.80;31.00;;;;;;5032630;28;20885;-74
2023/09/07 08:57:05;;;;;;;4.57;4.27;;;46.30;29.50;;;;;;5032887;28;20410;-74
2023/09/07 08:59:30;;;;;;;6.13;3.90;;;46.50;27.30;;;;;;5032804;28;20381;-74
2023/09/07 09:01:58;;;;;;;4.23;3.83;;;47.00;27.80;;;;;;5032510;28;21031;-75
2023/09/07 09:04:24;;;;;;;3.67;3.30;;;48.40;28.50;;;;;;5032479;28;20188;-72
2023/09/07 09:06:52;;;;;;;4.03;3.73;;;49.80;26.50;;;;;;5032595;28;20838;-73
2023/09/07 09:09:24;;;;;;;4.23;3.93;;;50.50;25.40;;;;;;5032535;28;20898;-72
2023/09/07 09:11:51;;;;;;;4.13;3.77;;;50.80;23.90;;;;;;5031230;28;20422;-73
2023/09/07 09:14:22;;;;;;;4.47;4.10;;;51.40;23.50;;;;;;5031965;28;20434;-72
2023/09/07 09:16:51;;;;;;;4.10;3.80;;;52.00;23.40;;;;;;5032482;28;20464;-72
2023/09/07 09:19:20;;;;;;;5.43;4.03;;;52.80;23.80;;;;;;5032457;28;20403;-72
2023/09/07 09:21:46;;;;;;;4.37;4.07;;;53.00;23.00;;;;;;5031112;28;20789;-72
2023/09/07 09:24:12;;;;;;;4.80;4.50;;;52.50;21.90;;;;;;5032385;28;20426;-73
2023/09/07 09:26:38;;;;;;;4.03;3.83;;;53.40;23.40;;;;;;5032043;28;20192;-72
2023/09/07 09:29:03;;;;;;;4.03;3.70;;;53.90;22.20;;;;;;5032311;28;20167;-73
2023/09/07 09:31:30;;;;;;;4.43;4.07;;;54.40;21.60;;;;;;5032198;28;20234;-71
2023/09/07 09:33:56;;;;;;;4.77;3.63;;;54.30;21.50;;;;;;5031891;28;20607;-73
2023/09/07 09:36:22;;;;;;;4.37;4.07;;;53.70;20.70;;;;;;5030904;28;20490;-72
2023/09/07 09:38:53;;;;;;;4.73;4.33;;;54.10;21.80;;;;;;5032050;28;20174;-73
2023/09/07 09:41:20;;;;;;;5.20;4.70;;;54.30;21.30;;;;;;5032129;28;20383;-72
2023/09/07 09:43:51;;;;;;;4.90;4.50;;;54.30;21.10;;;;;;5031626;28;20429;-72
2023/09/07 09:46:17;;;;;;;4.60;4.20;;;54.20;20.50;;;;;;5032070;28;20484;-73
2023/09/07 09:48:44;;;;;;;5.03;4.50;;;54.50;21.10;;;;;;5032071;28;20401;-72
2023/09/07 09:51:13;;;;;;;4.83;4.53;;;55.50;21.70;;;;;;5031923;28;20387;-72
2023/09/07 09:53:39;;;;;;;6.60;5.30;;;56.20;21.20;;;;;;5022957;28;20876;-71
2023/09/07 09:56:04;;;;;;;4.60;4.30;;;56.80;19.90;;;;;;5022332;28;20458;-71
2023/09/07 09:58:30;;;;;;;4.73;4.53;;;57.20;20.60;;;;;;5031906;28;20246;-72
2023/09/07 10:00:58;;;;;;;4.70;4.40;;;56.50;19.40;;;;;;5031997;28;20560;-72
2023/09/07 10:03:27;;;;;;;5.90;5.40;;;56.20;19.20;;;;;;5031525;28;20179;-72
2023/09/07 10:05:53;;;;;;;8.90;8.30;;;56.20;20.10;;;;;;5031738;28;20506;-73
2023/09/07 10:08:23;;;;;;;5.40;5.00;;;56.50;20.30;;;;;;5031758;28;20433;-73
2023/09/07 10:10:53;;;;;;;5.77;5.40;;;56.70;20.00;;;;;;5031794;28;20625;-73
2023/09/07 10:13:30;;;;;;;4.47;4.17;;;56.40;19.40;;;;;;5031495;28;20426;-74
2023/09/07 10:16:09;;;;;;;4.97;4.33;;;56.40;19.60;;;;;;5031817;28;20409;-73
2023/09/07 10:18:37;;;;;;;5.10;4.80;;;56.80;20.50;;;;;;5030511;28;20417;-73
2023/09/07 10:21:04;;;;;;;5.53;5.13;;;57.50;20.50;;;;;;5031681;28;20404;-73
2023/09/07 10:23:37;;;;;;;5.27;4.87;;;57.80;19.30;;;;;;5031589;28;20436;-72
2023/09/07 10:26:07;;;;;;;4.77;4.47;;;57.90;19.60;;;;;;5031809;28;20453;-73
2023/09/07 10:28:32;;;;;;;5.10;4.80;;;58.40;19.80;;;;;;5031658;28;21087;-73
2023/09/07 10:31:06;;;;;;;6.20;5.70;;;59.20;20.00;;;;;;5031763;28;20405;-70
2023/09/07 10:33:35;;;;;;;5.00;4.70;;;58.90;18.20;;;;;;5031318;28;20270;-71
2023/09/07 10:36:03;;;;;;;5.67;5.37;;;58.80;18.80;;;;;;5031578;28;20406;-74
2023/09/07 10:38:29;;;;;;;6.00;5.60;;;58.90;19.00;;;;;;5034679;28;20406;-73
2023/09/07 10:40:57;;;;;;;5.80;4.70;;;59.00;18.30;;;;;;5035388;28;20743;-73
2023/09/07 10:43:32;;;;;;;6.27;5.33;;;59.50;19.60;;;;;;5033830;28;20727;-73
2023/09/07 10:46:00;;;;;;;6.80;6.20;;;60.30;19.30;;;;;;5035154;28;20967;-73
2023/09/07 10:48:28;;;;;;;5.97;5.57;;;61.00;18.70;;;;;;5035590;28;20406;-74
2023/09/07 10:50:54;;;;;;;6.03;5.72;;;61.50;18.80;;;;;;5035358;28;20406;-73
2023/09/07 10:53:30;;;;;;;6.53;6.13;;;62.10;18.80;;;;;;5035174;28;20595;-73
2023/09/07 10:56:03;;;;;;;6.10;5.60;;;61.70;17.30;;;;;;5035120;28;20194;-73
2023/09/07 10:58:39;;;;;;;5.37;5.07;;;60.00;17.30;;;;;;5034987;28;20412;-72
2023/09/07 11:01:05;;;;;;;5.80;5.57;;;59.20;17.40;;;;;;5027546;28;20413;-73
2023/09/07 11:03:31;;;;;;;5.57;5.27;;;59.10;18.80;;;;;;5034696;28;20604;-73
2023/09/07 11:06:19;;;;;;;5.73;5.33;;;59.50;18.50;;;;;;5034846;28;20485;-73
2023/09/07 11:08:45;;;;;;;5.60;5.30;;;59.30;17.80;;;;;;5034783;28;20406;-73
2023/09/07 11:11:12;;;;;;;6.10;5.80;;;59.90;19.10;;;;;;5021657;28;20468;-70
2023/09/07 11:13:37;;;;;;;6.37;6.00;;;60.20;17.60;;;;;;5023853;28;20417;-70
2023/09/07 11:16:06;;;;;;;5.80;5.50;;;59.90;17.70;;;;;;5023008;28;20410;-70
2023/09/07 11:18:35;;;;;;;5.50;5.20;;;59.50;17.70;;;;;;5014907;28;20694;-71
2023/09/07 11:21:03;;;;;;;6.00;5.10;;;59.40;17.70;;;;;;5014834;28;20787;-72
2023/09/07 11:23:31;;;;;;;5.70;5.37;;;58.70;17.70;;;;;;5014446;28;20760;-72
2023/09/07 11:25:57;;;;;;;4.57;4.27;;;57.50;17.60;;;;;;5014703;28;20528;-72
2023/09/07 11:28:24;;;;;;;4.70;4.40;;;57.80;18.90;;;;;;5014720;28;20430;-73
2023/09/07 11:30:51;;;;;;;5.27;4.97;;;58.30;18.40;;;;;;5014647;28;20461;-72
2023/09/07 11:33:17;;;;;;;4.73;4.43;;;57.10;17.80;;;;;;5014353;28;20475;-71
2023/09/07 11:35:43;;;;;;;5.13;4.60;;;57.10;18.90;;;;;;5013267;28;20426;-73
2023/09/07 11:38:12;;;;;;;4.73;4.43;;;57.80;19.40;;;;;;5014500;28;20410;-72
2023/09/07 11:40:37;;;;;;;5.63;5.00;;;58.10;18.50;;;;;;5014647;28;20176;-72
2023/09/07 11:43:03;;;;;;;5.33;4.83;;;57.70;18.20;;;;;;5014224;28;20924;-73
2023/09/07 11:45:28;;;;;;;5.00;4.60;;;58.00;18.80;;;;;;5014591;28;20207;-73
2023/09/07 11:47:54;;;;;;;5.40;5.00;;;57.80;18.30;;;;;;5014052;28;20176;-72
2023/09/07 11:50:22;;;;;;;5.30;4.90;;;57.00;18.40;;;;;;5014392;28;20537;-72
2023/09/07 11:52:48;;;;;;;8.43;4.70;;;56.60;18.60;;;;;;5013911;28;20159;-72
2023/09/07 11:55:14;;;;;;;4.27;3.97;;;56.70;19.30;;;;;;5014096;28;20561;-73
2023/09/07 11:57:41;;;;;;;5.00;4.70;;;57.10;18.70;;;;;;5023061;28;20283;-73
2023/09/07 12:00:09;;;;;;;4.97;4.53;;;57.50;18.80;;;;;;5033770;28;20831;-72
2023/09/07 12:02:35;;;;;;;4.90;4.60;;;57.50;18.30;;;;;;5032956;28;20422;-73
2023/09/07 12:05:03;;;;;;;5.00;4.70;;;57.90;18.70;;;;;;5032474;28;20461;-73
2023/09/07 12:07:29;;;;;;;5.00;4.60;;;57.10;18.00;;;;;;5031336;28;20202;-72
2023/09/07 12:09:57;;;;;;;5.20;4.77;;;57.10;18.30;;;;;;5042287;28;20421;-72
2023/09/07 12:12:23;;;;;;;5.73;5.33;;;57.50;18.70;;;;;;5032256;28;20171;-72
2023/09/07 12:14:48;;;;;;;5.43;5.03;;;58.00;19.20;;;;;;5034560;28;20535;-73
2023/09/07 12:17:14;;;;;;;5.90;5.53;;;58.20;18.60;;;;;;5031856;28;20178;-72
2023/09/07 12:19:41;;;;;;;5.37;4.97;;;58.00;17.90;;;;;;5030887;28;20194;-73
2023/09/07 12:22:07;;;;;;;5.90;5.50;;;57.30;18.00;;;;;;5034805;28;20183;-72
2023/09/07 12:24:33;;;;;;;5.50;5.20;;;57.10;18.50;;;;;;5032251;28;20449;-73
2023/09/07 12:26:59;;;;;;;5.40;5.10;;;57.10;18.60;;;;;;5032365;28;20187;-73
2023/09/07 12:29:25;;;;;;;4.77;4.57;;;56.60;18.00;;;;;;5033266;28;20182;-72
2023/09/07 12:31:51;;;;;;;5.43;5.13;;;56.90;18.50;;;;;;5031679;28;20766;-72
2023/09/07 12:34:16;;;;;;;5.40;5.10;;;57.60;18.90;;;;;;5032666;28;20183;-73
2023/09/07 12:36:42;;;;;;;5.77;5.47;;;58.10;18.40;;;;;;5034686;28;20575;-73
2023/09/07 12:39:07;;;;;;;5.87;5.37;;;58.40;18.20;;;;;;5033062;28;20175;-73
2023/09/07 12:41:33;;;;;;;4.60;4.40;;;58.30;18.20;;;;;;5027915;28;20186;-72